createdAt,value
2018-09-14T00:00:08.655Z,73.30
2018-09-14T00:02:37.277Z,72.90
2018-09-14T00:05:06.645Z,72.90
2018-09-14T00:07:35.499Z,73.60
2018-09-14T00:10:04.474Z,73.70
2018-09-14T00:12:33.150Z,73.60
2018-09-14T00:15:01.802Z,73.70
2018-09-14T00:17:30.487Z,73.80
2018-09-14T00:19:59.077Z,73.50
2018-09-14T00:22:27.655Z,73.40
2018-09-14T00:24:56.957Z,73.40
2018-09-14T00:27:25.741Z,73.70
2018-09-14T00:29:54.949Z,73.90
2018-09-14T00:32:23.874Z,74.20
2018-09-14T00:34:53.013Z,74.20
2018-09-14T00:37:21.554Z,74.40
2018-09-14T00:39:50.691Z,74.70
2018-09-14T00:42:19.236Z,74.60
2018-09-14T00:44:47.885Z,74.90
2018-09-14T00:47:16.711Z,74.80
2018-09-14T00:49:45.420Z,75.00
2018-09-14T00:52:14.296Z,74.40
2018-09-14T00:54:42.896Z,74.40
2018-09-14T00:57:11.508Z,73.80
2018-09-14T00:59:40.152Z,73.50
2018-09-14T01:02:09.149Z,73.80
2018-09-14T01:04:37.738Z,73.70
2018-09-14T01:07:06.782Z,73.70
2018-09-14T01:09:35.724Z,73.80
2018-09-14T01:12:04.397Z,73.80
2018-09-14T01:14:33.014Z,74.00
2018-09-14T01:17:01.600Z,73.60
2018-09-14T01:19:30.168Z,73.30
2018-09-14T01:21:58.799Z,73.10
2018-09-14T01:24:27.345Z,73.00
2018-09-14T01:26:56.679Z,73.20
2018-09-14T01:29:25.380Z,73.20
2018-09-14T01:31:54.427Z,73.40
2018-09-14T01:34:23.083Z,73.80
2018-09-14T01:36:51.740Z,73.80
2018-09-14T01:39:20.383Z,73.60
2018-09-14T01:41:49.107Z,73.40
2018-09-14T01:44:17.683Z,73.40
2018-09-14T01:46:46.240Z,73.30
2018-09-14T01:49:14.860Z,74.00
2018-09-14T01:51:43.484Z,74.20
2018-09-14T01:54:13.428Z,74.20
2018-09-14T01:56:42.049Z,74.10
2018-09-14T01:59:10.729Z,74.20
2018-09-14T02:01:39.381Z,73.90
2018-09-14T02:04:08.428Z,74.00
2018-09-14T02:06:37.135Z,74.20
2018-09-14T02:09:08.003Z,74.90
2018-09-14T02:11:36.577Z,73.80
2018-09-14T02:14:05.489Z,73.80
2018-09-14T02:16:34.060Z,73.80
2018-09-14T02:19:02.805Z,73.80
2018-09-14T02:21:31.330Z,73.30
2018-09-14T02:23:59.891Z,73.50
2018-09-14T02:26:28.766Z,73.50
2018-09-14T02:28:57.464Z,73.30
2018-09-14T02:31:26.282Z,73.40
2018-09-14T02:33:55.393Z,73.20
2018-09-14T02:36:23.900Z,73.10
2018-09-14T02:38:52.488Z,73.20
2018-09-14T02:41:21.992Z,73.20
2018-09-14T02:43:50.575Z,73.10
2018-09-14T02:46:19.607Z,73.00
2018-09-14T02:48:48.788Z,73.00
2018-09-14T02:51:17.367Z,73.30
2018-09-14T02:53:46.212Z,73.70
2018-09-14T02:56:14.827Z,73.50
2018-09-14T02:58:44.350Z,73.80
2018-09-14T03:01:12.937Z,74.10
2018-09-14T03:03:41.528Z,74.30
2018-09-14T03:06:10.755Z,74.20
2018-09-14T03:08:39.253Z,74.20
2018-09-14T03:11:08.352Z,74.10
2018-09-14T03:13:38.075Z,74.50
2018-09-14T03:16:06.757Z,74.00
2018-09-14T03:18:35.438Z,73.80
2018-09-14T03:21:04.100Z,73.60
2018-09-14T03:23:32.635Z,73.40
2018-09-14T03:26:01.468Z,73.60
2018-09-14T03:28:30.244Z,74.00
2018-09-14T03:30:58.814Z,73.90
2018-09-14T03:33:27.520Z,73.60
2018-09-14T03:35:56.073Z,73.60
2018-09-14T03:38:24.659Z,73.50
2018-09-14T03:40:53.196Z,73.50
2018-09-14T03:43:21.794Z,73.70
2018-09-14T03:45:50.548Z,73.50
2018-09-14T03:48:19.099Z,73.30
2018-09-14T03:50:48.003Z,73.50
2018-09-14T03:53:16.783Z,73.70
2018-09-14T03:55:45.505Z,73.60
2018-09-14T03:58:14.100Z,73.80
2018-09-14T04:00:42.896Z,73.70
2018-09-14T04:03:11.515Z,73.70
2018-09-14T04:05:40.079Z,73.50
2018-09-14T04:08:09.056Z,73.40
2018-09-14T04:10:37.940Z,72.90
2018-09-14T04:13:08.684Z,72.70
2018-09-14T04:15:38.685Z,73.20
2018-09-14T04:18:08.208Z,73.10
2018-09-14T04:20:37.183Z,73.40
2018-09-14T04:23:06.593Z,73.30
2018-09-14T04:25:35.852Z,73.50
2018-09-14T04:28:05.258Z,73.80
2018-09-14T04:30:33.857Z,73.00
2018-09-14T04:33:02.476Z,73.30
2018-09-14T04:35:30.987Z,73.30
2018-09-14T04:37:59.656Z,73.30
2018-09-14T04:40:28.416Z,73.00
2018-09-14T04:42:57.372Z,73.40
2018-09-14T04:45:27.189Z,73.60
2018-09-14T04:47:55.911Z,73.90
2018-09-14T04:50:25.825Z,74.20
2018-09-14T04:52:54.611Z,73.90
2018-09-14T04:55:23.365Z,74.30
2018-09-14T04:57:52.822Z,73.40
2018-09-14T05:00:21.915Z,73.50
2018-09-14T05:02:50.807Z,73.40
2018-09-14T05:05:20.065Z,73.20
2018-09-14T05:07:48.719Z,73.40
2018-09-14T05:10:17.984Z,73.00
2018-09-14T05:12:47.052Z,73.30
2018-09-14T05:15:16.033Z,73.50
2018-09-14T05:17:44.615Z,73.40
2018-09-14T05:20:13.748Z,73.30
2018-09-14T05:22:42.988Z,73.40
2018-09-14T05:25:11.752Z,73.40
2018-09-14T05:27:41.032Z,73.20
2018-09-14T05:30:09.687Z,73.40
2018-09-14T05:32:38.267Z,73.60
2018-09-14T05:35:07.844Z,73.60
2018-09-14T05:37:36.452Z,73.40
2018-09-14T05:40:05.182Z,73.70
2018-09-14T05:42:33.824Z,72.90
2018-09-14T05:45:02.457Z,73.00
2018-09-14T05:47:31.770Z,73.00
2018-09-14T05:50:01.039Z,73.10
2018-09-14T05:52:30.398Z,73.20
2018-09-14T05:55:00.072Z,73.10
2018-09-14T05:57:31.110Z,73.00
2018-09-14T06:00:01.072Z,73.00
2018-09-14T06:02:30.654Z,72.80
2018-09-14T06:04:59.283Z,72.90
2018-09-14T06:07:28.005Z,72.80
2018-09-14T06:09:57.101Z,72.80
2018-09-14T06:12:26.018Z,72.40
2018-09-14T06:14:54.993Z,72.40
2018-09-14T06:17:24.021Z,72.30
2018-09-14T06:19:53.250Z,72.30
2018-09-14T06:22:22.069Z,72.40
2018-09-14T06:24:50.718Z,72.00
2018-09-14T06:27:19.591Z,72.20
2018-09-14T06:29:48.505Z,72.60
2018-09-14T06:32:17.415Z,72.50
2018-09-14T06:34:46.053Z,72.00
2018-09-14T06:37:16.461Z,72.30
2018-09-14T06:39:46.027Z,73.10
2018-09-14T06:42:15.625Z,72.30
2018-09-14T06:44:45.074Z,72.00
2018-09-14T06:47:13.882Z,72.10
2018-09-14T06:49:42.685Z,72.10
2018-09-14T06:52:11.543Z,72.30
2018-09-14T06:54:41.988Z,72.10
2018-09-14T06:57:11.696Z,72.20
2018-09-14T06:59:40.835Z,72.20
2018-09-14T07:02:09.988Z,72.50
2018-09-14T07:04:38.667Z,72.70
2018-09-14T07:07:07.568Z,72.80
2018-09-14T07:09:37.063Z,72.80
2018-09-14T07:12:06.123Z,72.50
2018-09-14T07:14:36.008Z,72.00
2018-09-14T07:17:04.780Z,71.90
2018-09-14T07:19:33.645Z,71.70
2018-09-14T07:22:02.220Z,71.40
2018-09-14T07:24:31.943Z,71.10
2018-09-14T07:27:00.515Z,71.00
2018-09-14T07:29:29.107Z,71.30
2018-09-14T07:31:57.958Z,71.40
2018-09-14T07:34:27.609Z,71.70
2018-09-14T07:36:56.539Z,71.70
2018-09-14T07:39:25.840Z,71.50
2018-09-14T07:41:56.148Z,71.90
2018-09-14T07:44:25.502Z,71.90
2018-09-14T07:46:54.318Z,72.10
2018-09-14T07:49:23.002Z,72.20
2018-09-14T07:51:51.891Z,71.90
2018-09-14T07:54:20.553Z,71.70
2018-09-14T07:56:49.131Z,71.30
2018-09-14T07:59:17.826Z,71.10
2018-09-14T08:01:46.853Z,71.20
2018-09-14T08:04:17.257Z,70.80
2018-09-14T08:06:47.401Z,70.80
2018-09-14T08:09:16.404Z,70.60
2018-09-14T08:11:45.077Z,69.50
2018-09-14T08:14:13.684Z,69.70
2018-09-14T08:16:43.280Z,68.60
2018-09-14T08:19:12.126Z,68.30
2018-09-14T08:21:40.941Z,68.60
2018-09-14T08:24:10.384Z,68.70
2018-09-14T08:26:39.242Z,68.80
2018-09-14T08:29:07.997Z,68.20
2018-09-14T08:31:36.773Z,67.80
2018-09-14T08:34:05.692Z,68.20
2018-09-14T08:36:34.492Z,68.50
2018-09-14T08:39:03.657Z,68.10
2018-09-14T08:41:32.525Z,68.10
2018-09-14T08:44:01.591Z,68.40
2018-09-14T08:46:30.643Z,68.80
2018-09-14T08:48:59.946Z,68.10
2018-09-14T08:51:28.588Z,68.30
2018-09-14T08:53:57.699Z,67.60
2018-09-14T08:56:26.267Z,67.70
2018-09-14T08:58:55.268Z,67.90
2018-09-14T09:01:24.053Z,67.80
2018-09-14T09:03:53.781Z,67.50
2018-09-14T09:06:22.589Z,67.70
2018-09-14T09:08:52.003Z,67.30
2018-09-14T09:11:21.057Z,66.60
2018-09-14T09:14:04.238Z,66.10
2018-09-14T09:16:33.018Z,65.40
2018-09-14T09:19:01.761Z,65.40
2018-09-14T09:21:30.327Z,65.80
2018-09-14T09:23:59.472Z,64.80
2018-09-14T09:26:28.205Z,64.50
2018-09-14T09:28:57.406Z,64.50
2018-09-14T09:31:26.305Z,65.20
2018-09-14T09:33:55.077Z,65.80
2018-09-14T09:36:23.787Z,66.30
2018-09-14T09:38:52.370Z,65.90
2018-09-14T09:41:21.550Z,66.20
2018-09-14T09:43:50.546Z,66.40
2018-09-14T09:46:19.307Z,65.70
2018-09-14T09:48:48.290Z,65.50
2018-09-14T09:51:17.907Z,65.90
2018-09-14T09:53:46.430Z,66.10
2018-09-14T09:56:15.099Z,66.40
2018-09-14T09:58:43.697Z,65.60
2018-09-14T10:01:17.925Z,65.90
2018-09-14T10:03:52.506Z,66.10
2018-09-14T10:06:24.676Z,65.50
2018-09-14T10:08:55.274Z,65.40
2018-09-14T10:11:24.154Z,65.00
2018-09-14T10:13:53.229Z,65.00
2018-09-14T10:16:21.873Z,64.90
2018-09-14T10:18:51.390Z,65.20
2018-09-14T10:21:20.264Z,65.90
2018-09-14T10:23:49.032Z,66.50
2018-09-14T10:26:17.723Z,66.50
2018-09-14T10:28:46.538Z,65.90
2018-09-14T10:31:15.199Z,65.20
2018-09-14T10:33:43.958Z,64.70
2018-09-14T10:36:12.566Z,64.70
2018-09-14T10:38:41.243Z,64.90
2018-09-14T10:41:10.423Z,65.30
2018-09-14T10:43:38.988Z,64.90
2018-09-14T10:46:07.569Z,64.70
2018-09-14T10:48:36.634Z,64.00
2018-09-14T10:51:05.316Z,64.20
2018-09-14T10:53:33.848Z,64.50
2018-09-14T10:56:02.889Z,64.00
2018-09-14T10:58:37.286Z,64.20
2018-09-14T11:01:06.004Z,63.60
2018-09-14T11:03:34.592Z,63.60
2018-09-14T11:06:04.362Z,63.70
2018-09-14T11:08:34.332Z,64.30
2018-09-14T11:11:03.876Z,63.30
2018-09-14T11:13:32.601Z,62.90
2018-09-14T11:16:01.644Z,63.40
2018-09-14T11:18:30.260Z,62.70
2018-09-14T11:20:58.978Z,61.60
2018-09-14T11:23:27.621Z,62.50
2018-09-14T11:25:56.595Z,62.80
2018-09-14T11:28:25.209Z,62.70
2018-09-14T11:30:53.864Z,62.50
2018-09-14T11:33:22.982Z,61.60
2018-09-14T11:35:54.142Z,61.80
2018-09-14T11:38:23.714Z,61.80
2018-09-14T11:40:52.515Z,62.20
2018-09-14T11:43:21.163Z,62.50
2018-09-14T11:45:49.816Z,62.90
2018-09-14T11:48:18.679Z,62.70
2018-09-14T11:50:47.416Z,62.70
2018-09-14T11:53:16.024Z,61.50
2018-09-14T11:55:44.590Z,61.60
2018-09-14T11:58:13.388Z,62.10
2018-09-14T12:00:42.130Z,62.00
2018-09-14T12:03:11.248Z,62.00
2018-09-14T12:05:40.142Z,61.80
2018-09-14T12:08:09.750Z,61.20
2018-09-14T12:10:38.739Z,60.80
2018-09-14T12:13:08.464Z,60.50
2018-09-14T12:15:37.156Z,60.50
2018-09-14T12:18:06.293Z,60.90
2018-09-14T12:20:34.905Z,60.80
2018-09-14T12:23:03.794Z,60.90
2018-09-14T12:25:32.348Z,61.10
2018-09-14T12:28:01.399Z,60.70
2018-09-14T12:30:30.387Z,60.50
2018-09-14T12:32:59.255Z,59.90
2018-09-14T12:35:28.477Z,59.80
2018-09-14T12:37:57.006Z,60.50
2018-09-14T12:40:26.443Z,60.50
2018-09-14T12:42:55.787Z,60.20
2018-09-14T12:45:24.732Z,60.30
2018-09-14T12:47:53.762Z,59.90
2018-09-14T12:50:23.043Z,60.10
2018-09-14T12:52:52.375Z,59.80
2018-09-14T12:55:21.977Z,59.30
2018-09-14T12:57:50.522Z,58.60
2018-09-14T13:00:20.263Z,59.70
2018-09-14T13:02:49.612Z,59.60
2018-09-14T13:05:18.151Z,59.80
2018-09-14T13:07:46.740Z,59.00
2018-09-14T13:10:15.511Z,58.30
2018-09-14T13:12:44.064Z,58.50
2018-09-14T13:15:12.656Z,58.20
2018-09-14T13:17:41.379Z,58.90
2018-09-14T13:20:11.051Z,58.60
2018-09-14T13:22:39.776Z,58.50
2018-09-14T13:25:08.449Z,58.50
2018-09-14T13:27:38.244Z,58.40
2018-09-14T13:30:08.132Z,57.90
2018-09-14T13:32:36.896Z,58.40
2018-09-14T13:35:05.467Z,58.20
2018-09-14T13:37:34.036Z,58.80
2018-09-14T13:40:02.648Z,58.40
2018-09-14T13:42:31.205Z,59.50
2018-09-14T13:45:00.419Z,59.50
2018-09-14T13:47:29.002Z,58.50
2018-09-14T13:49:58.051Z,59.10
2018-09-14T13:52:27.723Z,59.50
2018-09-14T13:54:56.432Z,58.20
2018-09-14T13:57:25.034Z,58.80
2018-09-14T13:59:53.780Z,58.70
2018-09-14T14:02:23.526Z,58.40
2018-09-14T14:04:52.520Z,58.70
2018-09-14T14:07:21.174Z,58.60
2018-09-14T14:09:50.171Z,58.60
2018-09-14T14:12:18.771Z,58.60
2018-09-14T14:14:47.844Z,58.30
2018-09-14T14:17:16.526Z,57.90
2018-09-14T14:19:45.163Z,58.10
2018-09-14T14:22:14.441Z,58.00
2018-09-14T14:24:43.745Z,58.00
2018-09-14T14:27:12.426Z,58.70
2018-09-14T14:29:41.756Z,58.10
2018-09-14T14:32:10.630Z,57.50
2018-09-14T14:34:39.606Z,58.20
2018-09-14T14:37:08.425Z,58.70
2018-09-14T14:39:38.649Z,56.80
2018-09-14T14:42:07.904Z,57.10
2018-09-14T14:44:37.367Z,58.10
2018-09-14T14:47:06.146Z,56.00
2018-09-14T14:49:36.012Z,56.40
2018-09-14T14:52:04.990Z,57.20
2018-09-14T14:54:35.323Z,57.80
2018-09-14T14:57:04.786Z,57.40
2018-09-14T14:59:33.690Z,56.60
2018-09-14T15:02:02.477Z,57.20
2018-09-14T15:04:31.740Z,57.30
2018-09-14T15:07:00.940Z,57.70
2018-09-14T15:09:30.135Z,58.20
2018-09-14T15:12:00.697Z,57.90
2018-09-14T15:14:30.337Z,58.30
2018-09-14T15:16:58.926Z,57.90
2018-09-14T15:19:28.310Z,57.80
2018-09-14T15:21:57.947Z,57.90
2018-09-14T15:24:27.461Z,57.20
2018-09-14T15:26:57.351Z,56.70
2018-09-14T15:29:26.271Z,57.40
2018-09-14T15:31:55.315Z,57.00
2018-09-14T15:34:25.180Z,56.80
2018-09-14T15:36:53.784Z,56.40
2018-09-14T15:39:22.401Z,57.60
2018-09-14T15:41:51.721Z,58.30
2018-09-14T15:44:20.395Z,58.60
2018-09-14T15:46:49.125Z,58.60
2018-09-14T15:49:17.848Z,57.40
2018-09-14T15:51:46.671Z,57.60
2018-09-14T15:54:15.351Z,57.30
2018-09-14T15:56:44.755Z,57.00
2018-09-14T15:59:13.623Z,58.10
2018-09-14T16:01:43.381Z,57.20
2018-09-14T16:04:11.993Z,57.40
2018-09-14T16:06:41.119Z,56.80
2018-09-14T16:09:10.983Z,57.60
2018-09-14T16:11:39.854Z,57.90
2018-09-14T16:14:09.247Z,57.70
2018-09-14T16:16:37.989Z,57.60
2018-09-14T16:19:07.562Z,58.30
2018-09-14T16:21:36.228Z,58.50
2018-09-14T16:24:05.123Z,58.80
2018-09-14T16:26:33.781Z,59.00
2018-09-14T16:29:02.991Z,59.00
2018-09-14T16:31:31.554Z,59.80
2018-09-14T16:34:00.249Z,60.60
2018-09-14T16:36:29.802Z,61.10
2018-09-14T16:38:58.473Z,61.60
2018-09-14T16:41:27.108Z,61.80
2018-09-14T16:43:55.974Z,61.80
2018-09-14T16:46:24.581Z,61.90
2018-09-14T16:48:54.727Z,62.00
2018-09-14T16:51:23.380Z,62.10
2018-09-14T16:53:52.686Z,62.50
2018-09-14T16:56:22.295Z,62.60
2018-09-14T16:58:51.013Z,62.80
2018-09-14T17:01:20.585Z,63.00
2018-09-14T17:03:50.472Z,62.90
2018-09-14T17:06:19.313Z,63.20
2018-09-14T17:08:49.021Z,63.10
2018-09-14T17:11:18.168Z,63.00
2018-09-14T17:13:47.247Z,62.90
2018-09-14T17:16:15.887Z,63.20
2018-09-14T17:18:45.189Z,63.00
2018-09-14T17:21:14.078Z,63.30
2018-09-14T17:23:42.752Z,62.90
2018-09-14T17:26:12.188Z,62.90
2018-09-14T17:28:40.770Z,62.60
2018-09-14T17:31:09.599Z,62.80
2018-09-14T17:33:38.544Z,62.70
2018-09-14T17:36:07.181Z,63.30
2018-09-14T17:38:35.808Z,63.10
2018-09-14T17:41:04.621Z,63.00
2018-09-14T17:43:34.000Z,63.00
2018-09-14T17:46:03.208Z,62.80
2018-09-14T17:48:32.704Z,63.20
2018-09-14T17:51:04.486Z,63.50
2018-09-14T17:53:33.251Z,63.20
2018-09-14T17:56:01.992Z,63.20
2018-09-14T17:58:31.160Z,63.10
2018-09-14T18:00:59.923Z,63.50
2018-09-14T18:03:28.723Z,63.50
2018-09-14T18:06:02.708Z,63.70
2018-09-14T18:08:32.953Z,64.10
2018-09-14T18:11:01.923Z,64.10
2018-09-14T18:13:30.497Z,64.50
2018-09-14T18:15:59.272Z,64.40
2018-09-14T18:18:28.210Z,64.60
2018-09-14T18:20:57.286Z,64.70
2018-09-14T18:23:26.634Z,64.90
2018-09-14T18:25:55.996Z,65.00
2018-09-14T18:28:25.291Z,65.00
2018-09-14T18:30:54.129Z,65.00
2018-09-14T18:33:22.932Z,65.10
2018-09-14T18:35:51.590Z,65.30
2018-09-14T18:38:20.053Z,65.20
2018-09-14T18:40:49.559Z,65.30
2018-09-14T18:43:18.304Z,64.60
2018-09-14T18:45:47.551Z,64.60
2018-09-14T18:48:16.496Z,65.00
2018-09-14T18:50:45.217Z,65.20
2018-09-14T18:53:14.326Z,65.30
2018-09-14T18:55:44.023Z,65.20
2018-09-14T18:58:12.652Z,65.30
2018-09-14T19:00:41.327Z,65.50
2018-09-14T19:03:10.327Z,65.60
2018-09-14T19:05:40.625Z,65.80
2018-09-14T19:08:10.002Z,65.60
2018-09-14T19:10:38.623Z,65.60
2018-09-14T19:13:07.891Z,65.90
2018-09-14T19:15:36.723Z,66.00
2018-09-14T19:18:05.721Z,66.20
2018-09-14T19:20:34.299Z,66.30
2018-09-14T19:23:03.383Z,66.40
2018-09-14T19:25:31.991Z,66.00
2018-09-14T19:28:01.247Z,66.80
2018-09-14T19:30:30.163Z,67.00
2018-09-14T19:32:58.848Z,68.60
2018-09-14T19:35:28.063Z,67.20
2018-09-14T19:37:56.707Z,67.30
2018-09-14T19:40:25.393Z,67.30
2018-09-14T19:42:54.269Z,67.40
2018-09-14T19:45:23.064Z,67.30
2018-09-14T19:47:52.265Z,67.20
2018-09-14T19:50:21.151Z,67.00
2018-09-14T19:52:50.281Z,67.10
2018-09-14T19:55:19.056Z,67.30
2018-09-14T19:57:47.677Z,67.60
2018-09-14T20:00:16.768Z,67.70
2018-09-14T20:02:45.805Z,67.90
2018-09-14T20:05:14.398Z,68.00
2018-09-14T20:07:43.178Z,68.00
2018-09-14T20:10:12.118Z,68.10
2018-09-14T20:12:42.114Z,68.10
2018-09-14T20:15:11.283Z,68.20
2018-09-14T20:17:40.344Z,68.50
2018-09-14T20:20:09.498Z,68.60
2018-09-14T20:22:38.323Z,68.50
2018-09-14T20:25:08.801Z,68.50
2018-09-14T20:27:37.483Z,68.60
2018-09-14T20:30:07.242Z,68.60
2018-09-14T20:32:37.292Z,68.60
2018-09-14T20:35:06.771Z,68.70
2018-09-14T20:37:37.836Z,68.80
2018-09-14T20:40:06.698Z,68.90
2018-09-14T20:42:35.464Z,69.20
2018-09-14T20:45:04.484Z,69.40
2018-09-14T20:47:33.445Z,69.50
2018-09-14T20:50:03.084Z,69.60
2018-09-14T20:52:32.042Z,69.50
2018-09-14T20:55:00.644Z,70.30
2018-09-14T20:57:29.657Z,69.60
2018-09-14T20:59:58.264Z,69.90
2018-09-14T21:02:26.840Z,70.10
2018-09-14T21:04:55.571Z,70.10
2018-09-14T21:07:24.510Z,70.20
2018-09-14T21:09:53.749Z,70.30
2018-09-14T21:12:22.470Z,70.30
2018-09-14T21:14:51.146Z,70.30
2018-09-14T21:17:20.685Z,70.40
2018-09-14T21:19:49.316Z,70.50
2018-09-14T21:22:17.910Z,70.50
2018-09-14T21:24:47.689Z,70.50
2018-09-14T21:27:16.464Z,70.50
2018-09-14T21:29:45.199Z,70.60
2018-09-14T21:32:13.804Z,70.90
2018-09-14T21:34:42.767Z,70.90
2018-09-14T21:37:11.407Z,71.00
2018-09-14T21:39:40.087Z,70.90
2018-09-14T21:42:08.701Z,71.00
2018-09-14T21:44:37.271Z,71.00
2018-09-14T21:47:07.364Z,70.90
2018-09-14T21:49:36.412Z,70.60
2018-09-14T21:52:04.950Z,70.40
2018-09-14T21:54:33.779Z,70.40
2018-09-14T21:57:02.447Z,70.60
2018-09-14T21:59:31.579Z,70.70
2018-09-14T22:02:00.363Z,70.70
2018-09-14T22:04:28.998Z,70.40
2018-09-14T22:06:57.604Z,70.40
2018-09-14T22:09:26.135Z,70.40
2018-09-14T22:11:54.725Z,70.20
2018-09-14T22:14:23.318Z,70.30
2018-09-14T22:16:51.926Z,70.40
2018-09-14T22:19:20.578Z,70.00
2018-09-14T22:21:49.205Z,70.10
2018-09-14T22:24:17.952Z,70.10
2018-09-14T22:26:46.711Z,70.30
2018-09-14T22:29:15.571Z,70.50
2018-09-14T22:31:44.120Z,70.70
2018-09-14T22:34:12.687Z,70.70
2018-09-14T22:36:41.355Z,70.50
2018-09-14T22:39:11.636Z,70.50
2018-09-14T22:41:40.280Z,70.70
2018-09-14T22:44:09.036Z,70.80
2018-09-14T22:46:37.650Z,70.80
2018-09-14T22:49:06.387Z,70.80
2018-09-14T22:51:34.975Z,70.80
2018-09-14T22:54:03.824Z,70.80
2018-09-14T22:56:32.447Z,70.80
2018-09-14T22:59:01.086Z,70.70
2018-09-14T23:01:29.822Z,70.70
2018-09-14T23:03:58.561Z,70.60
2018-09-14T23:06:27.135Z,70.80
2018-09-14T23:08:55.749Z,70.80
2018-09-14T23:11:24.366Z,70.60
2018-09-14T23:13:53.098Z,70.80
2018-09-14T23:16:21.750Z,70.90
2018-09-14T23:18:51.323Z,70.60
2018-09-14T23:21:21.673Z,70.60
2018-09-14T23:23:50.191Z,71.40
2018-09-14T23:26:21.168Z,71.20
2018-09-14T23:28:49.793Z,71.30
2018-09-14T23:31:18.541Z,71.30
2018-09-14T23:33:47.269Z,71.30
2018-09-14T23:36:15.800Z,71.30
2018-09-14T23:38:44.363Z,71.40
2018-09-14T23:41:12.915Z,71.20
2018-09-14T23:43:41.360Z,71.30
2018-09-14T23:46:09.967Z,71.70
2018-09-14T23:48:38.719Z,71.80
2018-09-14T23:51:07.352Z,71.70
2018-09-14T23:53:37.475Z,71.90
2018-09-14T23:56:06.097Z,71.90
2018-09-14T23:58:34.780Z,71.80
